地図

経路データ

SID SEASON NUMBER BASIN SUBBASIN NAME ISO_TIME NATURE LAT LON WMO_WIND WMO_PRES WMO_AGENCY TRACK_TYPE DIST2LAND LANDFALL IFLAG USA_AGENCY USA_ATCF_ID USA_LAT USA_LON USA_RECORD USA_STATUS USA_WIND USA_PRES USA_SSHS USA_R34_NE USA_R34_SE USA_R34_SW USA_R34_NW USA_R50_NE USA_R50_SE USA_R50_SW USA_R50_NW USA_R64_NE USA_R64_SE USA_R64_SW USA_R64_NW USA_POCI USA_ROCI USA_RMW USA_EYE TOKYO_LAT TOKYO_LON TOKYO_GRADE TOKYO_WIND TOKYO_PRES TOKYO_R50_DIR TOKYO_R50_LONG TOKYO_R50_SHORT TOKYO_R30_DIR TOKYO_R30_LONG TOKYO_R30_SHORT TOKYO_LAND CMA_LAT CMA_LON CMA_CAT CMA_WIND CMA_PRES HKO_LAT HKO_LON HKO_CAT HKO_WIND HKO_PRES NEWDELHI_LAT NEWDELHI_LON NEWDELHI_GRADE NEWDELHI_WIND NEWDELHI_PRES NEWDELHI_CI NEWDELHI_DP NEWDELHI_POCI REUNION_LAT REUNION_LON REUNION_TYPE REUNION_WIND REUNION_PRES REUNION_TNUM REUNION_CI REUNION_RMW REUNION_R34_NE REUNION_R34_SE REUNION_R34_SW REUNION_R34_NW REUNION_R50_NE REUNION_R50_SE REUNION_R50_SW REUNION_R50_NW REUNION_R64_NE REUNION_R64_SE REUNION_R64_SW REUNION_R64_NW BOM_LAT BOM_LON BOM_TYPE BOM_WIND BOM_PRES BOM_TNUM BOM_CI BOM_RMW BOM_R34_NE BOM_R34_SE BOM_R34_SW BOM_R34_NW BOM_R50_NE BOM_R50_SE BOM_R50_SW BOM_R50_NW BOM_R64_NE BOM_R64_SE BOM_R64_SW BOM_R64_NW BOM_ROCI BOM_POCI BOM_EYE BOM_POS_METHOD BOM_PRES_METHOD NADI_LAT NADI_LON NADI_CAT NADI_WIND NADI_PRES WELLINGTON_LAT WELLINGTON_LON WELLINGTON_WIND WELLINGTON_PRES DS824_LAT DS824_LON DS824_STAGE DS824_WIND DS824_PRES TD9636_LAT TD9636_LON TD9636_STAGE TD9636_WIND TD9636_PRES TD9635_LAT TD9635_LON TD9635_WIND TD9635_PRES TD9635_ROCI NEUMANN_LAT NEUMANN_LON NEUMANN_CLASS NEUMANN_WIND NEUMANN_PRES MLC_LAT MLC_LON MLC_CLASS MLC_WIND MLC_PRES USA_GUST BOM_GUST BOM_GUST_PER REUNION_GUST REUNION_GUST_PER USA_SEAHGT USA_SEARAD_NE USA_SEARAD_SE USA_SEARAD_SW USA_SEARAD_NW STORM_SPEED STORM_DIR
1967279N13251 1967 115 EP MM OLIVIA 1967-10-06 00:00:00 TS 13.2000 -109.100 25 hurdat_epa main 813 813 O________OO___ hurdat_epa EP141967 13.2000 -109.100 TD 25 -1 13.2000 -109.100 TC 25 13.2000 -109.100 1 4 284
1967279N13251 1967 115 EP MM OLIVIA 1967-10-06 03:00:00 TS 13.2497 -109.299 main 825 816 P________PP___ EP141967 13.2500 -109.302 TD 25 -1 13.2500 -109.302 TC 25 13.2485 -109.283 1 4 285
1967279N13251 1967 115 EP MM OLIVIA 1967-10-06 06:00:00 TS 13.2995 -109.495 25 hurdat_epa main 829 829 O________OP___ hurdat_epa EP141967 13.3000 -109.500 TD 25 -1 13.3000 -109.500 TC 25 13.2975 -109.473 1 4 285
1967279N13251 1967 115 EP MM OLIVIA 1967-10-06 09:00:00 TS 13.3495 -109.689 main 842 833 P________PP___ EP141967 13.3500 -109.693 TD 25 -1 13.3500 -109.693 TC 25 13.3478 -109.676 1 4 284
1967279N13251 1967 115 EP MM OLIVIA 1967-10-06 12:00:00 TS 13.4000 -109.900 25 hurdat_epa main 847 847 O________OO___ hurdat_epa EP141967 13.4000 -109.900 TD 25 -1 13.4000 -109.900 TC 25 13.4000 -109.900 1 5 283
1967279N13251 1967 115 EP MM OLIVIA 1967-10-06 15:00:00 TS 13.4508 -110.144 main 852 852 P________PP___ EP141967 13.4500 -110.143 TD 25 -1 13.4500 -110.143 TC 25 13.4541 -110.148 1 5 282
1967279N13251 1967 115 EP MM OLIVIA 1967-10-06 18:00:00 TS 13.5015 -110.402 25 hurdat_epa main 873 873 O________OP___ hurdat_epa EP141967 13.5000 -110.400 TD 25 -1 13.5000 -110.400 TC 25 13.5076 -110.407 1 5 281
1967279N13251 1967 115 EP MM OLIVIA 1967-10-06 21:00:00 TS 13.5515 -110.665 main 888 888 P________PP___ EP141967 13.5500 -110.665 TD 25 -1 13.5500 -110.665 TC 25 13.5573 -110.663 1 5 281
1967279N13251 1967 115 EP MM OLIVIA 1967-10-07 00:00:00 TS 13.6000 -110.900 25 hurdat_epa main 903 903 O________OO___ hurdat_epa EP141967 13.6000 -110.900 TD 25 -1 13.6000 -110.900 TC 25 13.6000 -110.900 1 4 285
1967279N13251 1967 115 EP MM OLIVIA 1967-10-07 03:00:00 TS 13.6524 -111.063 main 910 910 P________PP___ EP141967 13.6574 -111.058 TD 25 -1 13.6574 -111.058 TC 25 13.6320 -111.084 1 3 287
1967279N13251 1967 115 EP MM OLIVIA 1967-10-07 06:00:00 TS 13.6914 -111.210 25 hurdat_epa main 918 918 O________OP___ hurdat_epa EP141967 13.7000 -111.200 TD 25 -1 13.7000 -111.200 TC 25 13.6572 -111.250 1 3 279
1967279N13251 1967 115 EP MM OLIVIA 1967-10-07 09:00:00 TS 13.7018 -111.391 main 933 933 P________PP___ EP141967 13.7075 -111.385 TD 25 -1 13.7075 -111.385 TC 25 13.6789 -111.416 1 4 271
1967279N13251 1967 115 EP MM OLIVIA 1967-10-07 12:00:00 TS 13.7000 -111.600 25 hurdat_epa main 949 949 O________OO___ hurdat_epa EP141967 13.7000 -111.600 TD 25 -1 13.7000 -111.600 TC 25 13.7000 -111.600 1 4 269
1967279N13251 1967 115 EP MM OLIVIA 1967-10-07 15:00:00 TS 13.6974 -111.840 main 964 964 P________PP___ EP141967 13.6925 -111.843 TD 25 -1 13.6925 -111.843 TC 25 13.7169 -111.829 1 5 271
1967279N13251 1967 115 EP MM OLIVIA 1967-10-07 18:00:00 TS 13.7070 -112.096 25 hurdat_epa main 987 987 O________OP___ hurdat_epa EP141967 13.7000 -112.100 TD 25 -1 13.7000 -112.100 TC 25 13.7350 -112.078 1 5 276
1967279N13251 1967 115 EP MM OLIVIA 1967-10-07 21:00:00 TS 13.7461 -112.348 main 1003 1003 P________PP___ EP141967 13.7425 -112.350 TD 25 -1 13.7425 -112.350 TC 25 13.7606 -112.338 1 5 281
1967279N13251 1967 115 EP MM OLIVIA 1967-10-08 00:00:00 TS 13.8000 -112.600 25 hurdat_epa main 1019 1019 O________OO___ hurdat_epa EP141967 13.8000 -112.600 TD 25 -1 13.8000 -112.600 TC 25 13.8000 -112.600 1 5 282
1967279N13251 1967 115 EP MM OLIVIA 1967-10-08 03:00:00 TS 13.8477 -112.856 main 1044 1036 P________PP___ EP141967 13.8425 -112.850 TD 25 -1 13.8425 -112.850 TC 25 13.8688 -112.878 1 5 283
1967279N13251 1967 115 EP MM OLIVIA 1967-10-08 06:00:00 TS 13.9100 -113.110 25 hurdat_epa main 1053 1051 O________OP___ hurdat_epa EP141967 13.9000 -113.100 TD 25 -1 13.9000 -113.100 TC 25 13.9501 -113.152 1 5 287
1967279N13251 1967 115 EP MM OLIVIA 1967-10-08 09:00:00 TS 14.0063 -113.378 main 1058 1051 P________PP___ EP141967 14.0000 -113.372 TD 25 -1 14.0000 -113.372 TC 25 14.0314 -113.400 1 5 292
1967279N13251 1967 115 EP MM OLIVIA 1967-10-08 12:00:00 TS 14.1000 -113.600 25 hurdat_epa main 1054 1048 O________OO___ hurdat_epa EP141967 14.1000 -113.600 TD 25 -1 14.1000 -113.600 TC 25 14.1000 -113.600 3 4 294
1967279N13251 1967 115 EP MM OLIVIA 1967-10-08 15:00:00 TS 14.1590 -113.729 main 1048 1048 P________PP___ EP141967 14.1650 -113.730 TD 25 -1 14.1650 -113.730 TC 25 14.1351 -113.725 3 2 295
1967279N13251 1967 115 EP MM OLIVIA 1967-10-08 18:00:00 TS 14.1915 -113.801 25 hurdat_epa main 1052 1052 O________OP___ hurdat_epa EP141967 14.2000 -113.800 TD 25 -1 14.2000 -113.800 TC 25 14.1573 -113.803 3 1 287
1967279N13251 1967 115 EP MM OLIVIA 1967-10-08 21:00:00 TS 14.1952 -113.851 main 1056 1056 P________PP___ EP141967 14.2000 -113.850 TD 35 0 14.2000 -113.850 TC 35 14.1758 -113.854 3 1 275
1967279N13251 1967 115 EP MM OLIVIA 1967-10-09 00:00:00 TS 14.2000 -113.900 45 hurdat_epa main 1056 1056 O________OO___ hurdat_epa EP141967 14.2000 -113.900 TS 45 0 14.2000 -113.900 TC 45 14.2000 -113.900 4 1 288
1967279N13251 1967 115 EP MM OLIVIA 1967-10-09 03:00:00 TS 14.2401 -113.994 main 1060 1050 P________PP___ EP141967 14.2425 -114.000 TS 45 0 14.2425 -114.000 TC 45 14.2306 -113.971 4 2 297
1967279N13251 1967 115 EP MM OLIVIA 1967-10-09 06:00:00 TS 14.2940 -114.089 45 hurdat_epa main 1054 1054 O________OP___ hurdat_epa EP141967 14.3000 -114.100 TS 45 0 14.3000 -114.100 TC 45 14.2700 -114.043 4 2 305
1967279N13251 1967 115 EP MM OLIVIA 1967-10-09 09:00:00 TS 14.3389 -114.144 main 1054 1048 P________PP___ EP141967 14.3425 -114.150 TS 45 0 14.3425 -114.150 TC 45 14.3244 -114.118 4 2 316
1967279N13251 1967 115 EP MM OLIVIA 1967-10-09 12:00:00 TS 14.4000 -114.200 45 hurdat_epa main 1048 1042 O________OO___ hurdat_epa EP141967 14.4000 -114.200 TS 45 0 14.4000 -114.200 TC 45 14.4000 -114.200 4 2 316
1967279N13251 1967 115 EP MM OLIVIA 1967-10-09 15:00:00 TS 14.4887 -114.295 main 1042 1037 P________PP___ EP141967 14.4850 -114.293 TS 45 0 14.4850 -114.293 TC 45 14.5035 -114.305 4 3 316
1967279N13251 1967 115 EP MM OLIVIA 1967-10-09 18:00:00 TS 14.6055 -114.403 45 hurdat_epa main 1037 1027 O________OP___ hurdat_epa EP141967 14.6000 -114.400 TS 45 0 14.6000 -114.400 TC 45 14.6275 -114.415 4 3 322
1967279N13251 1967 115 EP MM OLIVIA 1967-10-09 21:00:00 TS 14.7526 -114.509 main 1022 1017 P________PP___ EP141967 14.7500 -114.507 TS 45 0 14.7500 -114.507 TC 45 14.7628 -114.517 4 4 327
1967279N13251 1967 115 EP MM OLIVIA 1967-10-10 00:00:00 TS 14.9000 -114.600 45 hurdat_epa main 1017 1007 O________OO___ hurdat_epa EP141967 14.9000 -114.600 TS 45 0 14.9000 -114.600 TC 45 14.9000 -114.600 4 3 329
1967279N13251 1967 115 EP MM OLIVIA 1967-10-10 03:00:00 TS 14.9993 -114.663 main 1012 1002 P________PP___ EP141967 15.0000 -114.665 TS 45 0 15.0000 -114.665 TC 45 14.9965 -114.655 4 2 335
1967279N13251 1967 115 EP MM OLIVIA 1967-10-10 06:00:00 TS 15.0995 -114.698 45 hurdat_epa main 1002 992 O________OP___ hurdat_epa EP141967 15.1000 -114.700 TS 45 0 15.1000 -114.700 TC 45 15.0975 -114.688 4 2 352
1967279N13251 1967 115 EP MM OLIVIA 1967-10-10 09:00:00 TS 15.2209 -114.706 main 992 973 P________PP___ EP141967 15.2200 -114.708 TS 45 0 15.2200 -114.708 TC 45 15.2247 -114.702 4 3 356
1967279N13251 1967 115 EP MM OLIVIA 1967-10-10 12:00:00 TS 15.4000 -114.700 45 hurdat_epa main 973 944 O________OO___ hurdat_epa EP141967 15.4000 -114.700 TS 45 0 15.4000 -114.700 TC 45 15.4000 -114.700 2 5 2
1967279N13251 1967 115 EP MM OLIVIA 1967-10-10 15:00:00 TS 15.6736 -114.706 main 944 915 P________PP___ EP141967 15.6775 -114.707 TS 45 0 15.6775 -114.707 TC 45 15.6578 -114.702 2 6 0
1967279N13251 1967 115 EP MM OLIVIA 1967-10-10 18:00:00 TS 15.9925 -114.697 45 hurdat_epa main 915 887 O________OP___ hurdat_epa EP141967 16.0000 -114.700 TS 45 0 16.0000 -114.700 TC 45 15.9625 -114.687 2 6 3
1967279N13251 1967 115 EP MM OLIVIA 1967-10-10 21:00:00 TS 16.3032 -114.663 main 887 853 P________PP___ EP141967 16.3075 -114.665 TS 45 0 16.3075 -114.665 TC 45 16.2859 -114.655 2 6 9
1967279N13251 1967 115 EP MM OLIVIA 1967-10-11 00:00:00 TS 16.6000 -114.600 45 hurdat_epa main 853 828 O________OO___ hurdat_epa EP141967 16.6000 -114.600 TS 45 0 16.6000 -114.600 TC 45 16.6000 -114.600 2 6 15
1967279N13251 1967 115 EP MM OLIVIA 1967-10-11 03:00:00 TS 16.8564 -114.511 main 819 794 P________PP___ EP141967 16.8575 -114.507 TS 45 0 16.8575 -114.507 TC 45 16.8522 -114.526 2 5 21
1967279N13251 1967 115 EP MM OLIVIA 1967-10-11 06:00:00 TS 17.0985 -114.406 45 hurdat_epa main 794 770 O________OP___ hurdat_epa EP141967 17.1000 -114.400 TS 45 0 17.1000 -114.400 TC 45 17.0925 -114.430 2 5 22
1967279N13251 1967 115 EP MM OLIVIA 1967-10-11 09:00:00 TS 17.3353 -114.304 main 770 736 P________PP___ EP141967 17.3350 -114.300 TS 45 0 17.3350 -114.300 TC 45 17.3366 -114.319 2 5 22
1967279N13251 1967 115 EP MM OLIVIA 1967-10-11 12:00:00 TS 17.6000 -114.200 45 hurdat_epa main 736 703 O________OO___ hurdat_epa EP141967 17.6000 -114.200 TS 45 0 17.6000 -114.200 TC 45 17.6000 -114.200 2 6 18
1967279N13251 1967 115 EP MM OLIVIA 1967-10-11 15:00:00 TS 17.9363 -114.103 main 703 661 P________PP___ EP141967 17.9425 -114.107 TS 45 0 17.9425 -114.107 TC 45 17.9115 -114.086 2 7 16
1967279N13251 1967 115 EP MM OLIVIA 1967-10-11 18:00:00 TS 18.2885 -113.993 45 hurdat_epa main 661 628 O________OP___ hurdat_epa EP141967 18.3000 -114.000 TS 45 0 18.3000 -114.000 TC 45 18.2425 -113.965 2 7 20
1967279N13251 1967 115 EP MM OLIVIA 1967-10-11 21:00:00 TS 18.6014 -113.853 main 628 589 P________PP___ EP141967 18.6075 -113.857 TS 45 0 18.6075 -113.857 TC 45 18.5772 -113.836 2 7 24
1967279N13251 1967 115 EP MM OLIVIA 1967-10-12 00:00:00 TS 18.9000 -113.700 45 hurdat_epa main 589 557 O________OO___ hurdat_epa EP141967 18.9000 -113.700 TS 45 0 18.9000 -113.700 TC 45 18.9000 -113.700 2 7 26
1967279N13251 1967 115 EP MM OLIVIA 1967-10-12 03:00:00 TS 19.1941 -113.553 main 557 518 P________PP___ EP141967 19.2075 -113.550 TS 45 0 19.2075 -113.550 TC 45 19.1406 -113.565 2 6 26
1967279N13251 1967 115 EP MM OLIVIA 1967-10-12 06:00:00 TS 19.4750 -113.404 45 hurdat_epa main 518 494 O________OP___ hurdat_epa EP141967 19.5000 -113.400 TS 45 0 19.5000 -113.400 TC 45 19.3750 -113.421 2 6 29
1967279N13251 1967 115 EP MM OLIVIA 1967-10-12 09:00:00 TS 19.6993 -113.259 main 494 456 P________PP___ EP141967 19.7125 -113.257 TS 45 0 19.7125 -113.257 TC 45 19.6468 -113.268 2 6 29
1967279N13251 1967 115 EP MM OLIVIA 1967-10-12 12:00:00 TS 20.0000 -113.100 45 hurdat_epa main 456 402 O________OO___ hurdat_epa EP141967 20.0000 -113.100 TS 45 0 20.0000 -113.100 TC 45 20.0000 -113.100 2 9 22
1967279N13251 1967 115 EP MM OLIVIA 1967-10-12 15:00:00 TS 20.5006 -112.911 main 402 343 P________PP___ EP141967 20.4975 -112.908 TS 45 0 20.4975 -112.908 TC 45 20.5131 -112.923 2 12 18
1967279N13251 1967 115 EP MM OLIVIA 1967-10-12 18:00:00 TS 21.1010 -112.706 45 hurdat_epa main 343 289 O________OP___ hurdat_epa EP141967 21.1000 -112.700 TS 45 0 21.1000 -112.700 TC 45 21.1050 -112.730 2 13 17
1967279N13251 1967 115 EP MM OLIVIA 1967-10-12 21:00:00 TS 21.7158 -112.510 main 289 233 P________PP___ EP141967 21.7149 -112.507 TS 45 0 21.7149 -112.507 TC 45 21.7193 -112.523 2 13 17
1967279N13251 1967 115 EP MM OLIVIA 1967-10-13 00:00:00 TS 22.3000 -112.300 45 hurdat_epa main 233 186 O________OO___ hurdat_epa EP141967 22.3000 -112.300 TS 45 0 22.3000 -112.300 TC 45 22.3000 -112.300 2 11 22
1967279N13251 1967 115 EP MM OLIVIA 1967-10-13 03:00:00 TS 22.7712 -112.053 main 177 123 P________PP___ EP141967 22.7800 -112.057 TS 45 0 22.7800 -112.057 TC 45 22.7358 -112.036 2 10 28
1967279N13251 1967 115 EP MM OLIVIA 1967-10-13 06:00:00 TS 23.1871 -111.792 45 hurdat_epa main 123 84 O________OP___ hurdat_epa EP141967 23.2000 -111.800 TS 45 0 23.2000 -111.800 TC 45 23.1353 -111.762 2 9 31
1967279N13251 1967 115 EP MM OLIVIA 1967-10-13 09:00:00 TS 23.5644 -111.541 main 69 23 P________PP___ EP141967 23.5700 -111.550 TS 45 0 23.5700 -111.550 TC 45 23.5421 -111.508 2 9 29
1967279N13251 1967 115 EP MM OLIVIA 1967-10-13 12:00:00 TS 24.0000 -111.300 45 hurdat_epa main 23 0 O________OO___ hurdat_epa EP141967 24.0000 -111.300 TS 45 0 24.0000 -111.300 TC 45 24.0000 -111.300 2 12 24
1967279N13251 1967 115 EP MM OLIVIA 1967-10-13 15:00:00 TS 24.6257 -111.022 main 0 0 P________PP___ EP141967 24.6201 -110.998 TS 60 0 24.6201 -110.998 TC 60 24.6483 -111.114 2 14 18
1967279N13251 1967 115 EP MM OLIVIA 1967-10-13 18:00:00 TS 25.3079 -110.837 75 hurdat_epa main 20 20 O________OP___ hurdat_epa EP141967 25.3000 -110.800 HU 75 1 25.3000 -110.800 TC 75 25.3394 -110.986 2 14 7
1967279N13251 1967 115 EP MM OLIVIA 1967-10-13 21:00:00 TS 25.9710 -110.841 main 54 39 P________PP___ EP141967 25.9673 -110.817 HU 82 1 25.9673 -110.817 TC 75 25.9858 -110.939 2 12 353
1967279N13251 1967 115 EP MM OLIVIA 1967-10-14 00:00:00 TS 26.5000 -111.000 90 hurdat_epa main 39 29 O________OO___ hurdat_epa EP141967 26.5000 -111.000 HU 90 2 26.5000 -111.000 TC 75 26.5000 -111.000 4 9 336
1967279N13251 1967 115 EP MM OLIVIA 1967-10-14 03:00:00 TS 26.7897 -111.253 main 31 14 P________PP___ EP141967 26.7826 -111.270 HU 100 3 26.7826 -111.270 TC 75 26.8182 -111.184 4 7 308
1967279N13251 1967 115 EP MM OLIVIA 1967-10-14 06:00:00 TS 26.9113 -111.579 110 hurdat_epa main 14 9 O________OP___ hurdat_epa EP141967 26.9000 -111.600 HU 110 3 26.9000 -111.600 TC 75 26.9713 -111.467 4 6 288
1967279N13251 1967 115 EP MM OLIVIA 1967-10-14 09:00:00 TS 26.9771 -111.898 main 9 0 P________PP___ EP141967 26.9725 -111.908 HU 92 2 26.9725 -111.908 TC 75 27.0136 -111.817 4 6 279
1967279N13251 1967 115 EP MM OLIVIA 1967-10-14 12:00:00 TS 27.0000 -112.200 75 hurdat_epa main 0 0 O________OO___ hurdat_epa EP141967 27.0000 -112.200 HU 75 1 27.0000 -112.200 TC 75 27.0000 -112.200 2 5 279
1967279N13251 1967 115 EP MM OLIVIA 1967-10-14 15:00:00 TS 27.0574 -112.457 main 0 0 P________P____ EP141967 27.0574 -112.457 HU 60 0 27.0574 -112.457 TC 60 2 5 283
1967279N13251 1967 115 EP MM OLIVIA 1967-10-14 18:00:00 MX 27.1000 -112.700 45 hurdat_epa main 0 0 O________O____ hurdat_epa EP141967 27.1000 -112.700 TS 45 0 27.1000 -112.700 45 2 4 277
1967279N13251 1967 115 EP MM OLIVIA 1967-10-14 21:00:00 MX 27.1101 -112.948 main 0 0 P________P____ EP141967 27.1101 -112.948 TS 35 0 27.1101 -112.948 35 2 4 270
1967279N13251 1967 115 EP MM OLIVIA 1967-10-15 00:00:00 MX 27.1000 -113.200 25 hurdat_epa main 0 O________O____ hurdat_epa EP141967 27.1000 -113.200 TD 25 -1 27.1000 -113.200 25 4 267

IBTrACS Databaseについて

本データベースは、米国NOAAが公開する1842年以降の世界の熱帯低気圧のベストトラックデータアーカイブInternational Best Track Archive for Climate Stewardship (IBTrACS)を、ウェブで閲覧しやすい形式に変換したものです。

最終更新日:2021-10-21